Lakeview, OR

8:17 AM PDT on March 24, 2017 (GMT -0700)
MDMLC1 | | Change Station
Active Advisory: Wind Advisory

Elev 7357 ft 41.99 °N, 120.18 °W | Updated 4 hours ago

Overcast
Overcast
29.0 °F
Feels Like 29 °F
N
-
Wind Variable Wind from North

Today
High -- | Low -- °F
--% Chance of Precip.
Yesterday
High -- | Low -- °F
Precip. -- in
Pressure 29.96 in
Visibility 10.0 miles
Clouds Mostly Cloudy 3600 ft
Overcast 4600 ft
Windchill 29 °F
Dew Point Not available.
Humidity Not available.
Rainfall 0.00 in
Snow Depth Not available.
6:57 AM 7:18 PM
Waning Crescent, 14% visible
METAR KLKV 241515Z AUTO 17021G26KT 10SM BKN036 OVC046 04/M03 A2996 RMK AO1
Pressure 29.96 in
Visibility 10.0 miles
Clouds Mostly Cloudy 3600 ft
Overcast 4600 ft
Windchill 29 °F
Dew Point Not available.
Humidity Not available.
Rainfall 0.00 in
Snow Depth Not available.
6:57 AM 7:18 PM
Waning Crescent, 14% visible
METAR KLKV 241515Z AUTO 17021G26KT 10SM BKN036 OVC046 04/M03 A2996 RMK AO1

Get Your Daily Forecast Email!

Thanks for signing up!

Be on the lookout for a verification email in your inbox.

You'll start receiving severe weather alerts in your inbox..

×

10-Day Weather Forecast

Almanac

Astronomy

Mar. 24, 2017 Rise Set
Actual Time
Civil Twilight
Nautical Twilight
Astronomical Twilight
Moon
Length of Visible Light
Length of Day
Tomorrow will be .
, % of the Moon is Illuminated

Today's Extremes

State Highs State Lows

Community

WunderPhotos

Upload Photos

1,962,540 photos uploaded!

WunderBlog® & News

Nearby

Air Quality

  Air Quality AQ Index Pollutant
Not available.

Snow Depth

Station Depth Elevation

Earthquake Activity

City Distance Mag. Time & Date
Minimum magnitude displayed is 2.5.

Earthquake Activity

City Distance Mag. Time & Date
Minimum magnitude displayed is 2.5.

Coastal Water Temperatures

Place Temperature

Stations

Nearby Weather Stations

Station Location Temp. Windchill Dew Point Humidity Wind Precip. Elev Updated Type
                   

Watches & Warnings

Wind Advisory
Issued: 3:12 AM PDT Mar. 24, 2017 – National Weather Service

... Wind Advisory now in effect until 2 PM PDT this afternoon...

* winds... southwest 25 to 35 mph with gusts to 50 mph.

* Timing... winds will peak this morning, then decrease late this
afternoon.

* Locations include... Highway 31 between Summer Lake and Paisley.

* Impacts... strong Crosswinds will make driving difficult for
high profile vehicles.

* View the hazard area in detail at
http://weather.Gov/Medford/hazard

Precautionary/preparedness actions...

A Wind Advisory means that winds of 35 mph are expected with
higher gusts possible. Winds this strong can make driving
difficult, especially for high profile vehicles. Use extra
caution.